Time;durP1;ratioP1;P1;durP2;ratioP2;P2;SDS_P1;SDS_P2;PMS_P1;PMS_P2;Temp;Humidity;BMP_temperature;BMP_pressure;BME280_temperature;BME280_humidity;BME280_pressure;Samples;Min_cycle;Max_cycle;Signal;HPM_P1;HPM_P2
2021/08/28 00:02:09;;;;;;;5.85;1.77;;;;;;;14.18;55.34;101834.78;5032068;28;20048;-70
2021/08/28 00:04:35;;;;;;;3.70;1.13;;;;;;;14.41;54.66;101829.47;5050603;28;20036;-68
2021/08/28 00:07:01;;;;;;;4.93;1.23;;;;;;;14.60;54.04;101833.97;5036842;28;20518;-70
2021/08/28 00:09:27;;;;;;;8.43;1.60;;;;;;;14.35;54.92;101827.91;5048979;28;20083;-68
2021/08/28 00:11:52;;;;;;;4.97;1.35;;;;;;;14.39;54.89;101819.88;5035989;28;20513;-68
2021/08/28 00:14:18;;;;;;;4.80;1.65;;;;;;;14.45;54.26;101819.66;5037499;28;20109;-68
2021/08/28 00:16:43;;;;;;;6.50;1.50;;;;;;;14.67;53.93;101827.53;5047929;28;20490;-69
2021/08/28 00:19:10;;;;;;;6.97;1.38;;;;;;;14.48;54.18;101835.34;5033662;28;20052;-74
2021/08/28 00:21:36;;;;;;;1.85;1.00;;;;;;;14.51;54.36;101835.22;5032357;28;20080;-75
2021/08/28 00:24:02;;;;;;;6.68;1.48;;;;;;;14.59;53.92;101825.22;5035903;28;20087;-75
2021/08/28 00:26:29;;;;;;;4.00;1.33;;;;;;;14.84;53.29;101824.19;5036789;28;20041;-75
2021/08/28 00:28:54;;;;;;;4.10;1.42;;;;;;;14.69;53.72;101826.53;5042094;28;20526;-75
2021/08/28 00:31:20;;;;;;;4.65;2.40;;;;;;;14.81;53.14;101827.78;5051368;28;20041;-75
2021/08/28 00:33:45;;;;;;;4.30;1.25;;;;;;;14.89;53.21;101817.78;5042580;28;20040;-75
2021/08/28 00:36:11;;;;;;;7.22;1.52;;;;;;;14.52;54.23;101818.50;5031835;28;20052;-67
2021/08/28 00:38:37;;;;;;;6.60;1.60;;;;;;;14.70;53.82;101820.38;5032074;28;20020;-68
2021/08/28 00:41:02;;;;;;;7.32;2.08;;;;;;;14.89;53.42;101814.31;5039219;28;20419;-69
2021/08/28 00:43:28;;;;;;;7.63;2.58;;;;;;;14.62;54.17;101811.94;5034696;28;20041;-69
2021/08/28 00:45:54;;;;;;;5.15;2.58;;;;;;;14.62;54.09;101814.56;5049899;28;20551;-71
2021/08/28 00:48:20;;;;;;;6.43;1.98;;;;;;;14.74;53.42;101814.03;5031067;28;20037;-71
2021/08/28 00:50:45;;;;;;;5.60;2.40;;;;;;;14.73;53.14;101822.84;5033153;28;20045;-69
2021/08/28 00:53:14;;;;;;;7.50;2.88;;;;;;;14.54;53.69;101816.66;5048580;28;20037;-72
2021/08/28 00:55:47;;;;;;;10.00;2.65;;;;;;;14.56;53.44;101817.44;5048023;28;20060;-71
2021/08/28 00:58:14;;;;;;;8.88;2.42;;;;;;;14.55;53.29;101819.22;5033830;28;20115;-72
2021/08/28 01:00:53;;;;;;;4.30;1.90;;;;;;;14.53;53.20;101820.22;5035320;28;20033;-71
2021/08/28 01:03:23;;;;;;;7.80;3.22;;;;;;;14.50;53.63;101821.22;5032740;28;20037;-70
2021/08/28 01:06:01;;;;;;;6.85;2.35;;;;;;;14.98;52.30;101827.06;5032060;28;20517;-71
2021/08/28 01:08:42;;;;;;;11.27;1.90;;;;;;;14.85;52.74;101833.78;5023133;28;20030;-70
2021/08/28 01:11:19;;;;;;;7.68;3.00;;;;;;;14.26;53.62;101832.69;5047426;28;20037;-70
2021/08/28 01:14:04;;;;;;;9.60;2.13;;;;;;;14.46;53.56;101824.88;5049492;28;20456;-71
2021/08/28 01:16:33;;;;;;;6.38;2.30;;;;;;;14.60;52.77;101832.19;5052093;28;20025;-70
2021/08/28 01:18:59;;;;;;;7.95;3.03;;;;;;;14.25;53.87;101830.97;5049605;28;20029;-70
2021/08/28 01:21:36;;;;;;;3.88;2.58;;;;;;;14.70;52.76;101830.00;5039351;28;20652;-70
2021/08/28 01:24:21;;;;;;;9.57;2.63;;;;;;;14.28;53.40;101833.50;5032260;28;20048;-70
2021/08/28 01:27:36;;;;;;;6.70;2.58;;;;;;;14.55;53.06;101824.50;5022960;28;20045;-71
2021/08/28 01:30:05;;;;;;;6.97;2.72;;;;;;;14.52;52.75;101824.63;5042539;28;20035;-69
2021/08/28 01:32:32;;;;;;;8.93;2.95;;;;;;;14.49;52.86;101834.41;5052621;28;20037;-69
2021/08/28 01:34:59;;;;;;;8.60;2.83;;;;;;;14.54;52.65;101832.44;5038316;28;20040;-69
2021/08/28 01:37:26;;;;;;;15.27;2.63;;;;;;;14.25;53.61;101831.81;5038997;28;20094;-70
2021/08/28 01:40:02;;;;;;;9.38;2.47;;;;;;;14.46;52.92;101830.13;5050624;28;20389;-70
2021/08/28 01:42:35;;;;;;;5.45;2.40;;;;;;;14.24;53.45;101824.00;5053479;28;20116;-70
2021/08/28 01:45:04;;;;;;;6.70;2.72;;;;;;;14.40;52.95;101824.25;5036142;28;20316;-70
2021/08/28 01:47:33;;;;;;;5.97;2.75;;;;;;;14.30;52.97;101829.88;5035247;28;20031;-70
2021/08/28 01:50:01;;;;;;;4.13;2.45;;;;;;;14.23;53.48;101830.19;5051969;28;20474;-72
2021/08/28 01:52:26;;;;;;;7.15;3.05;;;;;;;14.50;52.71;101825.59;5051512;28;20048;-72
2021/08/28 01:54:53;;;;;;;8.75;2.78;;;;;;;14.65;52.45;101835.47;5036228;28;20121;-72
2021/08/28 01:57:21;;;;;;;7.82;2.80;;;;;;;13.93;54.44;101839.22;5066815;28;20067;-72
2021/08/28 02:00:12;;;;;;;6.90;2.08;;;;;;;14.65;52.51;101827.59;5045652;28;21015;-70
2021/08/28 02:02:42;;;;;;;8.77;2.13;;;;;;;14.55;52.92;101835.00;5059954;28;20646;-71
2021/08/28 02:05:11;;;;;;;7.22;2.38;;;;;;;14.65;52.85;101835.47;5038261;28;20029;-71
2021/08/28 02:07:55;;;;;;;8.05;2.58;;;;;;;14.06;54.38;101825.59;5058327;28;20033;-72
2021/08/28 02:10:31;;;;;;;10.02;2.60;;;;;;;14.70;52.43;101838.78;5054752;28;20028;-72
2021/08/28 02:13:25;;;;;;;4.90;2.28;;;;;;;14.59;52.59;101840.13;5053885;28;20456;-69
2021/08/28 02:15:57;;;;;;;11.82;3.03;;;;;;;14.52;53.06;101839.53;5053858;28;20491;-69
2021/08/28 02:18:44;;;;;;;4.55;2.33;;;;;;;14.67;52.51;101836.25;5049169;28;20029;-68
2021/08/28 02:21:26;;;;;;;9.00;2.25;;;;;;;14.64;52.53;101839.03;5052601;28;20068;-69
2021/08/28 02:24:09;;;;;;;4.78;1.98;;;;;;;14.49;53.12;101831.78;5053058;28;20595;-71
2021/08/28 02:27:07;;;;;;;5.70;2.15;;;;;;;14.58;52.76;101843.69;5054468;28;20311;-71
2021/08/28 02:29:43;;;;;;;6.90;1.75;;;;;;;14.31;53.35;101839.47;5046300;28;20064;-71
2021/08/28 02:32:15;;;;;;;7.43;2.05;;;;;;;14.26;53.70;101836.19;5072804;28;20037;-73
2021/08/28 02:34:47;;;;;;;4.13;1.90;;;;;;;14.27;53.54;101840.50;5061512;28;20049;-71
2021/08/28 02:37:15;;;;;;;7.30;2.58;;;;;;;14.24;53.69;101835.38;5057373;28;20354;-71
2021/08/28 02:39:43;;;;;;;11.30;2.90;;;;;;;14.50;53.15;101836.09;5039880;28;20109;-71
2021/08/28 02:42:11;;;;;;;8.00;2.15;;;;;;;14.31;53.36;101834.22;5038487;28;20060;-71
2021/08/28 02:44:39;;;;;;;6.97;2.38;;;;;;;14.33;53.36;101834.16;5039639;28;20036;-71
2021/08/28 02:47:06;;;;;;;5.65;2.42;;;;;;;13.96;54.89;101821.63;5051741;28;20466;-70
2021/08/28 02:49:34;;;;;;;8.85;2.42;;;;;;;13.94;55.60;101835.69;5035010;28;20026;-70
2021/08/28 02:52:03;;;;;;;8.77;2.92;;;;;;;14.40;54.59;101834.75;5039910;28;20065;-70
2021/08/28 02:54:38;;;;;;;5.05;2.30;;;;;;;14.26;54.80;101833.53;5036790;28;20036;-70
2021/08/28 02:57:05;;;;;;;7.80;1.90;;;;;;;14.33;54.61;101840.25;5037298;28;20025;-70
2021/08/28 02:59:31;;;;;;;4.47;2.35;;;;;;;14.04;55.42;101837.94;5038511;28;20033;-71
2021/08/28 03:01:57;;;;;;;9.13;2.58;;;;;;;13.98;55.11;101838.19;5035405;28;20026;-73
2021/08/28 03:04:25;;;;;;;7.10;2.20;;;;;;;14.13;54.20;101832.31;5054902;28;20026;-73
2021/08/28 03:06:51;;;;;;;5.90;2.42;;;;;;;14.38;53.76;101836.59;5035972;28;20124;-73
2021/08/28 03:09:18;;;;;;;7.47;2.42;;;;;;;13.98;54.68;101838.19;5052973;28;20032;-73
2021/08/28 03:11:45;;;;;;;6.28;2.65;;;;;;;14.55;52.86;101839.44;5037863;28;20048;-74
2021/08/28 03:14:11;;;;;;;6.20;2.63;;;;;;;14.82;52.12;101839.19;5052143;28;20524;-71
2021/08/28 03:16:42;;;;;;;4.25;2.03;;;;;;;14.20;53.76;101828.53;5053583;28;20021;-72
2021/08/28 03:19:27;;;;;;;6.00;2.65;;;;;;;14.52;53.20;101837.78;5053214;28;20022;-71
2021/08/28 03:21:54;;;;;;;7.60;1.95;;;;;;;14.60;52.91;101823.44;5035811;28;20033;-70
2021/08/28 03:24:24;;;;;;;7.85;2.65;;;;;;;14.55;53.11;101829.75;5035652;28;20037;-71
2021/08/28 03:27:03;;;;;;;4.45;2.08;;;;;;;14.41;53.54;101825.97;5034538;28;20085;-71
2021/08/28 03:29:32;;;;;;;8.77;3.10;;;;;;;14.83;52.70;101833.00;5039712;28;20035;-70
2021/08/28 03:32:00;;;;;;;6.40;1.90;;;;;;;14.72;52.84;101820.28;5035624;28;20033;-69
2021/08/28 03:34:27;;;;;;;8.35;2.63;;;;;;;14.28;53.61;101828.25;5050731;28;20033;-69
2021/08/28 03:36:59;;;;;;;7.07;2.63;;;;;;;14.34;53.68;101828.84;5050617;28;20111;-69
2021/08/28 03:39:24;;;;;;;3.53;2.08;;;;;;;14.60;53.10;101826.06;5034690;28;20025;-70
2021/08/28 03:41:51;;;;;;;7.50;2.10;;;;;;;14.67;52.67;101825.75;5037912;28;20083;-71
2021/08/28 03:44:19;;;;;;;7.00;1.95;;;;;;;14.06;54.87;101826.47;5038810;28;20063;-72
2021/08/28 03:46:47;;;;;;;12.45;3.65;;;;;;;14.75;52.42;101831.53;5036812;28;20029;-70
2021/08/28 03:49:13;;;;;;;5.43;2.10;;;;;;;14.58;53.12;101834.03;5033406;28;20053;-71
2021/08/28 03:51:41;;;;;;;8.25;2.22;;;;;;;14.36;53.88;101828.75;5043248;28;20056;-71
2021/08/28 03:54:08;;;;;;;9.35;2.40;;;;;;;14.40;53.85;101835.63;5042631;28;20486;-75
2021/08/28 03:56:34;;;;;;;11.18;2.20;;;;;;;14.28;53.91;101841.38;5036642;28;20040;-72
2021/08/28 03:59:00;;;;;;;6.95;2.63;;;;;;;14.69;52.96;101844.09;5050417;28;20490;-72
2021/08/28 04:01:26;;;;;;;5.53;1.98;;;;;;;14.60;52.98;101847.97;5043624;28;20054;-72
2021/08/28 04:03:52;;;;;;;7.63;2.88;;;;;;;14.25;53.75;101839.72;5053602;28;20037;-75
2021/08/28 04:06:18;;;;;;;8.70;2.55;;;;;;;14.15;54.19;101848.91;5042401;28;20466;-74
2021/08/28 04:08:47;;;;;;;7.28;2.75;;;;;;;14.54;53.14;101845.59;5051773;28;20109;-74
2021/08/28 04:11:14;;;;;;;4.65;1.90;;;;;;;14.65;52.77;101850.41;5022766;28;20037;-70
2021/08/28 04:13:39;;;;;;;6.13;2.22;;;;;;;14.54;53.01;101848.22;5050512;28;20352;-69
2021/08/28 04:16:05;;;;;;;10.55;2.08;;;;;;;14.54;53.21;101849.09;5035870;28;20044;-70
2021/08/28 04:18:40;;;;;;;7.25;2.10;;;;;;;14.84;52.08;101850.50;5034582;28;20025;-69
2021/08/28 04:21:24;;;;;;;8.68;1.70;;;;;;;14.45;53.13;101848.59;5034110;28;20151;-69
2021/08/28 04:23:50;;;;;;;9.75;2.08;;;;;;;14.50;53.04;101857.16;5050383;28;20029;-70
2021/08/28 04:26:34;;;;;;;7.53;2.67;;;;;;;14.49;52.96;101851.03;5033142;28;20052;-69
2021/08/28 04:28:59;;;;;;;6.72;2.17;;;;;;;14.68;52.37;101851.16;5039728;28;20029;-70
2021/08/28 04:31:27;;;;;;;6.75;1.85;;;;;;;14.51;52.99;101859.72;5043018;28;20367;-70
2021/08/28 04:33:56;;;;;;;4.90;1.63;;;;;;;14.49;53.15;101860.72;5033897;28;20037;-70
2021/08/28 04:36:21;;;;;;;6.60;2.42;;;;;;;14.32;53.10;101846.47;5024775;28;20390;-69
2021/08/28 04:38:47;;;;;;;8.15;2.17;;;;;;;14.35;52.81;101854.22;5048130;28;20032;-71
2021/08/28 04:41:13;;;;;;;6.68;2.25;;;;;;;14.19;53.43;101853.13;5033343;28;20045;-70
2021/08/28 04:43:38;;;;;;;8.95;2.42;;;;;;;14.15;53.34;101846.28;5034354;28;20029;-70
2021/08/28 04:46:19;;;;;;;5.80;2.22;;;;;;;14.13;53.69;101850.72;5038596;28;20041;-70
2021/08/28 04:48:47;;;;;;;7.43;2.33;;;;;;;14.36;52.65;101850.66;5048335;28;20033;-71
2021/08/28 04:51:36;;;;;;;7.40;2.05;;;;;;;14.17;53.72;101854.97;5030851;28;20069;-71
2021/08/28 04:54:04;;;;;;;5.10;1.95;;;;;;;14.59;52.49;101850.66;5033247;28;20029;-73
2021/08/28 04:56:29;;;;;;;7.45;2.00;;;;;;;14.13;54.04;101863.88;5049083;28;20142;-72
2021/08/28 04:58:56;;;;;;;9.35;1.65;;;;;;;14.64;52.58;101862.72;5033662;28;20471;-71
2021/08/28 05:01:41;;;;;;;9.70;2.30;;;;;;;14.25;53.56;101852.84;5035628;28;20044;-70
2021/08/28 05:04:22;;;;;;;5.60;1.73;;;;;;;14.09;54.31;101860.50;5050521;28;20040;-73
2021/08/28 05:06:48;;;;;;;8.93;2.03;;;;;;;14.51;53.11;101864.16;5032059;28;20040;-71
2021/08/28 05:09:19;;;;;;;5.20;1.42;;;;;;;13.99;54.32;101860.94;5032761;28;20057;-72
2021/08/28 05:11:47;;;;;;;5.07;1.85;;;;;;;14.28;53.44;101868.53;5035725;28;20033;-71
2021/08/28 05:14:13;;;;;;;4.60;1.73;;;;;;;14.34;53.47;101859.53;5031671;28;20036;-69
2021/08/28 05:16:39;;;;;;;7.18;2.00;;;;;;;14.61;52.95;101872.50;5035688;28;20036;-76
2021/08/28 05:19:21;;;;;;;11.23;1.85;;;;;;;14.19;54.12;101874.16;5038936;28;20040;-69
2021/08/28 05:21:48;;;;;;;6.68;1.88;;;;;;;14.24;53.98;101882.72;5051540;28;20041;-71
2021/08/28 05:24:26;;;;;;;4.10;1.45;;;;;;;14.44;53.31;101889.00;5048227;28;20059;-72
2021/08/28 05:26:56;;;;;;;7.82;1.77;;;;;;;14.38;53.36;101884.78;5051448;28;20443;-72
2021/08/28 05:29:24;;;;;;;6.55;1.67;;;;;;;14.15;53.98;101883.06;5034206;28;20025;-69
2021/08/28 05:31:52;;;;;;;6.15;2.25;;;;;;;14.41;53.28;101889.09;5041870;28;20025;-73
2021/08/28 05:34:18;;;;;;;10.45;2.28;;;;;;;14.51;53.00;101890.44;5035523;28;20486;-74
2021/08/28 05:37:12;;;;;;;10.57;1.90;;;;;;;14.46;52.98;101895.91;5046925;28;20561;-74
2021/08/28 05:40:19;;;;;;;5.32;1.83;;;;;;;14.21;53.50;101890.72;5028324;28;20045;-72
2021/08/28 05:42:46;;;;;;;4.85;2.05;;;;;;;14.42;53.11;101894.31;5041217;28;20025;-73
2021/08/28 05:45:11;;;;;;;4.43;1.65;;;;;;;14.53;52.76;101899.13;5031763;28;20033;-72
2021/08/28 05:47:37;;;;;;;7.97;1.10;;;;;;;13.86;54.62;101908.69;5047587;28;20033;-72
2021/08/28 05:50:07;;;;;;;3.78;1.38;;;;;;;14.61;52.84;101906.69;5033086;28;20137;-72
2021/08/28 05:52:33;;;;;;;9.93;1.20;;;;;;;14.49;52.96;101905.44;5032796;28;20044;-71
2021/08/28 05:54:58;;;;;;;9.75;1.45;;;;;;;14.56;52.99;101909.53;5033705;28;20029;-72
2021/08/28 05:57:24;;;;;;;7.70;1.50;;;;;;;14.64;52.65;101902.19;5048956;28;20028;-72
2021/08/28 05:59:50;;;;;;;7.80;1.30;;;;;;;14.35;53.19;101901.53;5035511;28;20508;-71
2021/08/28 06:02:15;;;;;;;6.47;1.55;;;;;;;14.49;53.05;101910.69;5035783;28;20033;-70
2021/08/28 06:04:41;;;;;;;2.83;0.98;;;;;;;14.54;53.06;101912.25;5050879;28;20033;-73
2021/08/28 06:07:12;;;;;;;8.10;1.25;;;;;;;14.70;52.83;101907.19;5030460;28;20037;-71
2021/08/28 06:10:07;;;;;;;8.68;1.17;;;;;;;14.36;53.27;101913.75;5029670;28;20049;-69
2021/08/28 06:12:45;;;;;;;18.60;2.47;;;;;;;14.94;52.09;101917.63;5035881;28;20280;-74
2021/08/28 06:15:29;;;;;;;8.15;1.15;;;;;;;14.19;53.97;101899.56;5033608;28;20080;-74
2021/08/28 06:17:59;;;;;;;5.10;0.85;;;;;;;14.70;52.63;101917.72;5036229;28;20395;-71
2021/08/28 06:20:25;;;;;;;1.92;0.60;;;;;;;14.24;53.68;101916.03;5050724;28;20036;-71
2021/08/28 06:22:51;;;;;;;4.47;1.02;;;;;;;14.59;52.90;101917.31;5036028;28;20055;-71
2021/08/28 06:25:20;;;;;;;9.13;0.73;;;;;;;14.71;52.74;101915.94;5061878;28;20067;-71
2021/08/28 06:27:48;;;;;;;7.43;0.90;;;;;;;14.65;52.60;101927.56;5052318;28;20029;-71
2021/08/28 06:30:20;;;;;;;5.55;0.75;;;;;;;14.53;53.12;101928.91;5065107;28;20176;-70
2021/08/28 06:32:47;;;;;;;2.13;0.60;;;;;;;14.50;53.13;101915.03;5041138;28;20083;-70
2021/08/28 06:35:13;;;;;;;7.00;1.15;;;;;;;14.22;53.94;101920.50;5048325;28;20037;-71
2021/08/28 06:37:43;;;;;;;4.25;0.68;;;;;;;14.45;53.57;101919.63;5055990;28;20037;-71
2021/08/28 06:40:47;;;;;;;7.18;1.52;;;;;;;14.61;53.27;101925.97;5040562;28;20409;-70
2021/08/28 06:43:34;;;;;;;3.85;0.70;;;;;;;14.59;53.10;101921.69;5040252;28;20110;-70
2021/08/28 06:46:30;;;;;;;3.28;0.50;;;;;;;14.61;53.40;101923.34;5037993;28;20037;-70
2021/08/28 06:49:14;;;;;;;8.32;0.55;;;;;;;14.75;52.71;101928.06;5035004;28;20149;-68
2021/08/28 06:52:01;;;;;;;7.05;0.65;;;;;;;14.49;53.83;101929.09;5039692;28;20114;-69
2021/08/28 06:54:55;;;;;;;6.90;0.55;;;;;;;14.05;55.65;101929.03;4972136;28;20125;-71
2021/08/28 06:57:50;;;;;;;8.05;1.45;;;;;;;14.21;55.23;101930.16;5022470;28;20098;-70
2021/08/28 07:00:24;;;;;;;2.85;0.80;;;;;;;14.24;55.25;101922.16;5038894;28;20429;-72
2021/08/28 07:03:08;;;;;;;4.18;1.30;;;;;;;14.03;55.25;101928.22;5036442;28;20056;-71
2021/08/28 07:05:34;;;;;;;4.35;0.45;;;;;;;14.11;55.25;101931.44;5042724;28;20548;-70
2021/08/28 07:08:11;;;;;;;6.78;1.30;;;;;;;14.51;54.34;101935.16;5050553;28;20056;-71
2021/08/28 07:10:37;;;;;;;6.10;0.90;;;;;;;14.23;55.46;101930.97;5037881;28;20302;-71
2021/08/28 07:13:04;;;;;;;5.53;1.52;;;;;;;14.00;56.04;101936.22;5038159;28;20447;-72
2021/08/28 07:15:30;;;;;;;4.35;0.90;;;;;;;14.06;55.92;101931.59;5035673;28;20033;-70
2021/08/28 07:17:58;;;;;;;5.50;1.10;;;;;;;14.05;55.94;101924.63;5035421;28;20037;-70
2021/08/28 07:20:26;;;;;;;3.45;1.20;;;;;;;13.50;56.97;101934.53;5039876;28;20053;-70
2021/08/28 07:22:53;;;;;;;3.58;0.60;;;;;;;13.44;57.17;101930.31;5035553;28;20039;-71
2021/08/28 07:25:38;;;;;;;3.03;0.40;;;;;;;13.46;57.79;101931.13;5019166;28;20033;-72
2021/08/28 07:28:10;;;;;;;7.47;0.93;;;;;;;13.98;56.06;101943.31;5055431;28;20067;-70
2021/08/28 07:30:54;;;;;;;8.52;0.60;;;;;;;13.90;56.00;101944.47;5035019;28;20043;-70
2021/08/28 07:33:20;;;;;;;7.25;0.70;;;;;;;14.20;55.23;101941.59;5034351;28;20136;-70
2021/08/28 07:35:46;;;;;;;2.72;0.98;;;;;;;14.19;55.39;101942.53;5049186;28;20298;-70
2021/08/28 07:38:11;;;;;;;5.53;0.40;;;;;;;13.91;55.26;101943.53;5034701;28;20034;-70
2021/08/28 07:40:37;;;;;;;4.10;0.50;;;;;;;13.78;56.12;101950.16;5050487;28;20118;-70
2021/08/28 07:43:03;;;;;;;5.15;0.30;;;;;;;13.67;56.02;101939.19;5039639;28;20447;-71
2021/08/28 07:45:34;;;;;;;8.63;0.73;;;;;;;14.18;54.97;101942.56;5043016;28;20102;-70
2021/08/28 07:48:07;;;;;;;4.22;1.45;;;;;;;14.03;55.35;101946.63;5036235;28;20040;-71
2021/08/28 07:50:34;;;;;;;13.80;0.70;;;;;;;13.64;56.77;101949.81;5038334;28;20572;-71
2021/08/28 07:53:01;;;;;;;6.38;0.60;;;;;;;13.71;57.06;101946.03;5041228;28;20135;-72
2021/08/28 07:55:27;;;;;;;10.77;0.65;;;;;;;13.54;57.83;101946.63;5047134;28;20033;-71
2021/08/28 07:57:53;;;;;;;4.82;0.73;;;;;;;13.51;57.73;101944.09;5037399;28;20122;-72
2021/08/28 08:00:19;;;;;;;4.30;0.77;;;;;;;13.73;57.14;101955.59;5035319;28;20029;-72
2021/08/28 08:02:45;;;;;;;4.40;0.70;;;;;;;13.81;56.58;101951.81;5037265;28;20032;-71
2021/08/28 08:05:28;;;;;;;9.93;1.30;;;;;;;13.67;57.64;101954.94;5034961;28;20429;-71
2021/08/28 08:08:23;;;;;;;5.40;0.80;;;;;;;13.45;58.73;101955.69;5043188;28;20040;-71
2021/08/28 08:11:07;;;;;;;3.53;0.70;;;;;;;13.56;58.37;101952.66;5034473;28;20135;-71
2021/08/28 08:13:51;;;;;;;4.93;0.40;;;;;;;13.96;57.32;101963.53;5035390;28;20052;-72
2021/08/28 08:16:37;;;;;;;7.63;0.73;;;;;;;14.11;56.82;101960.34;5016529;28;20237;-70
2021/08/28 08:19:17;;;;;;;1.90;0.50;;;;;;;13.86;57.27;101966.50;5032172;28;20037;-72
2021/08/28 08:22:05;;;;;;;6.35;0.65;;;;;;;13.65;57.56;101973.41;5037367;28;20045;-72
2021/08/28 08:24:39;;;;;;;3.65;0.45;;;;;;;13.80;57.07;101971.97;5051079;28;20032;-72
2021/08/28 08:27:27;;;;;;;4.25;0.73;;;;;;;13.94;56.71;101980.25;5011670;28;20060;-71
2021/08/28 08:30:00;;;;;;;5.00;1.02;;;;;;;13.56;57.46;101983.34;5033221;28;20037;-72
2021/08/28 08:32:45;;;;;;;4.20;0.63;;;;;;;13.77;56.90;101980.00;5040196;28;20086;-71
2021/08/28 08:35:11;;;;;;;3.88;0.43;;;;;;;14.14;55.90;101979.50;5048791;28;20040;-71
2021/08/28 08:37:38;;;;;;;6.80;0.80;;;;;;;14.19;55.54;101979.31;5035872;28;20028;-71
2021/08/28 08:40:06;;;;;;;5.05;0.40;;;;;;;14.26;55.61;101983.44;5047271;28;20036;-71
2021/08/28 08:42:39;;;;;;;4.75;0.43;;;;;;;14.21;55.74;101985.38;5046533;28;20037;-72
2021/08/28 08:45:05;;;;;;;3.00;0.90;;;;;;;14.31;55.39;101988.50;5030564;28;20037;-72
2021/08/28 08:47:34;;;;;;;4.50;0.52;;;;;;;13.84;56.24;101984.09;5031723;28;20029;-70
2021/08/28 08:50:01;;;;;;;1.35;0.20;;;;;;;14.95;53.80;101987.78;5051426;28;20115;-72
2021/08/28 08:52:40;;;;;;;5.07;0.57;;;;;;;15.17;52.74;101988.59;5041714;28;20429;-71
2021/08/28 08:55:38;;;;;;;3.47;0.40;;;;;;;14.85;53.86;101989.06;5033046;28;20037;-70
2021/08/28 08:58:04;;;;;;;5.55;0.60;;;;;;;14.85;53.37;101987.28;5046337;28;20100;-71
2021/08/28 09:00:32;;;;;;;2.00;0.45;;;;;;;15.16;52.88;101988.66;5049981;28;20185;-70
2021/08/28 09:03:21;;;;;;;5.40;0.70;;;;;;;15.29;52.18;101983.78;4999988;28;20045;-71
2021/08/28 09:05:54;;;;;;;7.97;0.50;;;;;;;15.67;51.15;101991.81;5040039;28;20525;-71
2021/08/28 09:08:19;;;;;;;6.75;0.57;;;;;;;15.09;52.65;101998.59;5048284;28;20037;-71
2021/08/28 09:10:45;;;;;;;5.95;0.80;;;;;;;15.31;52.25;101985.41;5034353;28;20033;-72
2021/08/28 09:13:12;;;;;;;4.10;0.70;;;;;;;15.87;51.18;101989.13;5031036;28;20037;-71
2021/08/28 09:15:43;;;;;;;5.50;0.40;;;;;;;16.46;49.16;101981.19;5032030;28;20029;-71
2021/08/28 09:18:08;;;;;;;1.73;0.40;;;;;;;16.03;49.96;101986.69;5034310;28;20033;-69
2021/08/28 09:20:36;;;;;;;3.97;0.38;;;;;;;15.97;50.46;101986.94;5030416;28;20524;-69
2021/08/28 09:23:04;;;;;;;4.25;0.82;;;;;;;16.52;49.44;101983.56;5033764;28;20506;-69
2021/08/28 09:25:29;;;;;;;2.38;0.30;;;;;;;16.16;49.00;101979.94;5034644;28;20057;-69
2021/08/28 09:27:55;;;;;;;2.38;0.30;;;;;;;16.51;48.81;101977.44;5065530;28;20045;-69
2021/08/28 09:30:30;;;;;;;2.25;0.55;;;;;;;16.24;49.07;101986.63;5054771;28;20129;-69
2021/08/28 09:33:14;;;;;;;2.13;0.30;;;;;;;16.45;48.62;101983.00;5053462;28;20025;-69
2021/08/28 09:35:42;;;;;;;7.47;0.45;;;;;;;15.58;49.78;101986.00;5053988;28;20065;-70
2021/08/28 09:38:11;;;;;;;4.97;0.30;;;;;;;16.57;48.28;101992.09;5056246;28;20183;-70
2021/08/28 09:40:37;;;;;;;3.75;0.45;;;;;;;16.96;47.55;101980.56;5047017;28;20036;-70
2021/08/28 09:43:06;;;;;;;3.60;0.85;;;;;;;17.84;45.60;101984.88;5032241;28;20033;-71
2021/08/28 09:45:35;;;;;;;4.55;0.63;;;;;;;17.86;45.22;101980.34;5033630;28;20099;-71
2021/08/28 09:48:01;;;;;;;1.17;0.30;;;;;;;17.41;45.94;101984.47;5049274;28;20116;-71
2021/08/28 09:50:33;;;;;;;4.85;0.50;;;;;;;17.47;45.35;101984.16;5033657;28;20032;-71
2021/08/28 09:53:23;;;;;;;6.03;0.57;;;;;;;17.51;45.38;101988.34;5049271;28;20044;-71
2021/08/28 09:55:57;;;;;;;3.03;0.35;;;;;;;17.12;46.45;101988.59;5032256;28;20036;-71
2021/08/28 09:58:24;;;;;;;6.03;1.00;;;;;;;16.83;47.05;101983.81;5032918;28;20417;-71
2021/08/28 10:00:50;;;;;;;2.60;0.30;;;;;;;16.92;47.39;101985.13;5048689;28;20507;-71
2021/08/28 10:03:17;;;;;;;3.92;1.02;;;;;;;17.34;45.37;101989.19;5034372;28;20055;-70
2021/08/28 10:05:44;;;;;;;3.70;0.40;;;;;;;17.26;45.27;101990.53;5049984;28;20032;-69
2021/08/28 10:08:10;;;;;;;2.53;0.20;;;;;;;17.35;44.99;101985.63;5049025;22;20036;-70
2021/08/28 10:10:38;;;;;;;6.25;0.50;;;;;;;17.34;45.48;101983.91;5007103;28;20533;-70
2021/08/28 10:13:05;;;;;;;3.30;0.40;;;;;;;17.65;44.82;101985.84;4996637;28;20561;-69
2021/08/28 10:15:32;;;;;;;2.50;0.30;;;;;;;17.32;45.13;101982.28;4997178;28;20081;-69
2021/08/28 10:17:59;;;;;;;3.70;0.40;;;;;;;17.35;45.16;101980.31;5006093;28;20021;-69
2021/08/28 10:20:27;;;;;;;3.35;0.40;;;;;;;17.02;45.86;101988.16;5016637;28;20026;-69
2021/08/28 10:22:55;;;;;;;2.67;0.40;;;;;;;17.67;45.12;101985.78;5016623;28;20028;-69
2021/08/28 10:25:25;;;;;;;7.35;0.55;;;;;;;17.98;44.22;101982.34;5016105;28;20057;-70
2021/08/28 10:27:53;;;;;;;4.70;0.47;;;;;;;18.22;43.87;101987.25;5018300;28;20048;-70
2021/08/28 10:30:21;;;;;;;3.72;0.40;;;;;;;17.93;43.89;101992.31;5020345;28;20048;-70
2021/08/28 10:32:47;;;;;;;4.15;0.55;;;;;;;17.31;45.29;101983.22;5024006;28;20080;-70
2021/08/28 10:35:15;;;;;;;6.10;0.82;;;;;;;17.06;45.00;101984.44;5023855;28;20038;-70
2021/08/28 10:37:41;;;;;;;2.35;0.43;;;;;;;17.60;45.05;101979.09;5003519;28;20120;-70
2021/08/28 10:40:12;;;;;;;1.90;0.35;;;;;;;18.17;44.22;101994.56;4989316;28;20619;-69
2021/08/28 10:42:40;;;;;;;3.50;0.70;;;;;;;18.16;43.41;101993.72;5021300;28;20041;-71
2021/08/28 10:45:06;;;;;;;4.60;0.30;;;;;;;17.84;43.43;101998.09;5027811;28;20136;-70
2021/08/28 10:47:44;;;;;;;1.77;0.40;;;;;;;17.82;43.85;101994.69;5037778;28;20036;-69
2021/08/28 10:50:12;;;;;;;2.50;0.30;;;;;;;18.01;44.00;101987.47;4986301;28;20088;-70
2021/08/28 10:52:40;;;;;;;1.75;0.45;;;;;;;18.62;42.49;101998.28;5021061;28;20036;-70
2021/08/28 10:55:09;;;;;;;4.35;0.60;;;;;;;18.69;41.86;101997.84;4999051;28;20043;-70
2021/08/28 10:57:35;;;;;;;1.30;0.40;;;;;;;18.63;42.18;101999.97;5015053;28;20030;-70
2021/08/28 11:00:16;;;;;;;4.55;0.50;;;;;;;18.66;42.31;101983.94;5019485;28;20025;-70
2021/08/28 11:03:00;;;;;;;0.85;0.50;;;;;;;18.26;42.26;101994.09;5014614;28;20089;-70
2021/08/28 11:05:31;;;;;;;3.00;0.88;;;;;;;18.20;42.78;101997.06;5012936;28;20061;-71
2021/08/28 11:08:16;;;;;;;2.90;0.40;;;;;;;18.11;42.95;101989.63;5002987;28;20508;-71
2021/08/28 11:10:41;;;;;;;1.75;0.30;;;;;;;17.43;44.43;101995.81;5022516;28;20048;-71
2021/08/28 11:13:07;;;;;;;7.47;0.50;;;;;;;17.23;45.23;101995.03;5005233;28;20038;-70
2021/08/28 11:15:32;;;;;;;4.63;0.30;;;;;;;16.82;45.91;101997.94;5003510;28;20150;-70
2021/08/28 11:18:02;;;;;;;3.85;0.65;;;;;;;16.73;46.11;102001.00;5018251;28;20029;-71
2021/08/28 11:21:06;;;;;;;3.00;0.40;;;;;;;16.85;45.64;102006.66;5020587;28;20029;-69
2021/08/28 11:23:38;;;;;;;3.20;1.30;;;;;;;16.66;46.30;102012.78;5008699;28;20103;-70
2021/08/28 11:26:03;;;;;;;1.95;0.65;;;;;;;16.87;45.36;102004.75;5007718;28;20045;-70
2021/08/28 11:28:38;;;;;;;3.65;0.80;;;;;;;17.03;45.39;102016.31;5006507;28;20033;-70
2021/08/28 11:31:04;;;;;;;4.03;0.65;;;;;;;16.81;45.77;102009.44;5013814;28;20048;-71
2021/08/28 11:33:32;;;;;;;3.40;0.35;;;;;;;15.96;47.48;102023.00;5018918;28;20037;-70
2021/08/28 11:35:59;;;;;;;2.72;0.57;;;;;;;15.87;47.32;102010.22;5003568;28;20549;-70
2021/08/28 11:38:48;;;;;;;4.90;0.73;;;;;;;16.21;47.01;102011.38;5005189;28;20033;-71
2021/08/28 11:41:26;;;;;;;2.63;0.57;;;;;;;16.94;45.75;102003.56;5017265;28;20049;-70
2021/08/28 11:43:53;;;;;;;2.20;0.25;;;;;;;16.40;46.65;102012.22;5013855;28;20156;-70
2021/08/28 11:46:25;;;;;;;3.45;0.40;;;;;;;16.60;46.29;102008.66;5021042;28;20125;-71